Airfield :
LOGIN :

Register | Disclaimer

   EN    FR    IT 

 










Legend :    VFR   Marginal VFR   IFR   Intensive IFR   Very Intensive IFR
Visi :
Ceiling :
>= 8 km
>= 3000ft
5 to 8 km
1000 to 3000 ft
1500m to 5 km
500 to 1000 ft
800 to 1500m
200 to 500 ft
< 800m
< 200 ft
Symbols :   Thunderstorms  Fog  Heavy snow  Heavy precipitations  Wind > 20 kt
SIGMETs :     Misc.  Thunderstorms  Icing  Turbulence  Mountain Waves  Volcanic Ashes







- Airport Elevation : 294 ft
- IATA code : NAP


LIRN - Naples Capodichino

CURRENT METAR :
  • 180620Z VRB02KT 8000 FEW030 BKN060 09/06 Q1026 NOSIG

EXPIRED METARs :
  • 180550Z 36003KT 270V070 8000 FEW040 BKN070 09/07 Q1026 NOSIG
  • 180520Z VRB02KT 9999 SCT040 BKN070 09/07 Q1026 NOSIG
  • 180450Z VRB03KT 9999 SCT040 BKN070 09/07 Q1026 NOSIG
  • 180420Z 05002KT 9999 SCT040 SCT070 09/07 Q1026 NOSIG
  • 180350Z VRB01KT 9999 SCT040 09/07 Q1026 NOSIG

TAF TAF LIRN
Valid from the 18 at 06:00 until the 19 at 06:00 UTC


180500Z 1806/1906 VRB04KT CAVOK
No reported NOTAMs for that airfield.
3 SIGMETs reported for the Roma FIR (LIRR) :
 
SIGMET 1  cancelation
LIRR SIGMET 3 VALID 180614/180630 LIIB
LIRR ROMA FIR CNL SIGMET 1 180001/180630 NC=
Volcanic ashes
LIRR SIGMET 2 VALID 180605/181230 LIIB
LIRR ROMA FIR VA ERUPTION MT ETNA PSN N3744 E01500=
SIGMET 1  CANCELED :
Volcanic ashes
LIRR SIGMET 1 VALID 180001/180630 LIIB
LIRR ROMA FIR VA ERUPTION MT ETNA PSN N3744 E01500 VA CLD OBS AT 0000Z WI N3719 E01434 - N3734 E01419 - N3745 E01500 - N3719 E01434 MOV SW 10KT SFC/FL120 NC FCST AT 0600Z WI N3719 E01434 - N3734 E01419 - N3745 E01500 - N3719 E01434=



MET'MAP, your aeronautical weather chart ! - Copyright ORBIFLY December 2007 - Disclaimer

ORBIFLY MET'MAP TEAM :

Programming & Development : Alexandra Zaïnal
Concept & Development : Baudouin d'Aumeries
Co-Development & Prog : Marc-Olivier Méhu
Technical & hardware support : Manuel Goepfert

Contact : metmap@orbifly.com




SOURCES & CREDITS :

   NOAA